Time;durP1;ratioP1;P1;durP2;ratioP2;P2;SDS_P1;SDS_P2;PMS_P1;PMS_P2;Temp;Humidity;BMP_temperature;BMP_pressure;BME280_temperature;BME280_humidity;BME280_pressure;Samples;Min_cycle;Max_cycle;Signal;HPM_P1;HPM_P2
2023/05/24 00:00:24;;;;;;;31.63;10.32;;;10.20;99.90;;;;;;5052100;28;20227;-78
2023/05/24 00:02:51;;;;;;;23.73;9.10;;;10.20;99.90;;;;;;5058170;28;20244;-77
2023/05/24 00:05:18;;;;;;;22.77;6.82;;;10.20;99.90;;;;;;5049991;28;20573;-79
2023/05/24 00:07:45;;;;;;;18.08;7.28;;;10.10;99.90;;;;;;5048777;28;20235;-78
2023/05/24 00:10:14;;;;;;;27.85;7.57;;;10.10;99.90;;;;;;5047662;28;20282;-78
2023/05/24 00:12:41;;;;;;;25.38;8.40;;;10.10;99.90;;;;;;5040421;28;20223;-78
2023/05/24 00:15:08;;;;;;;22.80;9.10;;;10.00;99.90;;;;;;5060531;28;20206;-77
2023/05/24 00:17:40;;;;;;;27.73;7.00;;;10.00;99.90;;;;;;5047235;28;20192;-77
2023/05/24 00:20:10;;;;;;;34.05;7.18;;;10.10;99.90;;;;;;5050003;28;20196;-77
2023/05/24 00:22:38;;;;;;;21.75;7.00;;;10.10;99.90;;;;;;5055376;28;20215;-77
2023/05/24 00:25:05;;;;;;;21.60;7.05;;;10.10;99.90;;;;;;5047025;28;20593;-77
2023/05/24 00:27:36;;;;;;;19.92;7.60;;;10.10;99.90;;;;;;5052985;28;20272;-77
2023/05/24 00:30:03;;;;;;;31.13;11.55;;;10.10;99.90;;;;;;5043583;28;20212;-76
2023/05/24 00:32:30;;;;;;;24.55;6.70;;;10.00;99.90;;;;;;5048822;28;20305;-77
2023/05/24 00:34:57;;;;;;;24.73;9.15;;;10.00;99.90;;;;;;5049275;28;20199;-76
2023/05/24 00:37:25;;;;;;;36.22;7.18;;;10.10;99.90;;;;;;5048346;28;20247;-77
2023/05/24 00:39:52;;;;;;;26.17;8.65;;;10.10;99.90;;;;;;5049758;28;20222;-77
2023/05/24 00:42:19;;;;;;;31.70;9.48;;;10.10;99.90;;;;;;5052187;28;20307;-77
2023/05/24 00:44:47;;;;;;;29.20;6.72;;;10.10;99.90;;;;;;5060556;28;20294;-75
2023/05/24 00:47:14;;;;;;;20.80;7.78;;;10.10;99.90;;;;;;5069420;28;20207;-77
2023/05/24 00:49:41;;;;;;;26.55;7.68;;;10.20;99.90;;;;;;5054213;28;20256;-76
2023/05/24 00:52:09;;;;;;;32.53;9.68;;;10.10;99.90;;;;;;5054747;28;20295;-77
2023/05/24 00:54:35;;;;;;;25.15;7.22;;;10.20;99.90;;;;;;5053954;28;20283;-77
2023/05/24 00:57:03;;;;;;;24.63;7.78;;;10.10;99.90;;;;;;5052920;28;20739;-78
2023/05/24 00:59:30;;;;;;;23.63;8.93;;;10.10;99.90;;;;;;5041096;28;20644;-79
2023/05/24 01:01:58;;;;;;;24.00;7.60;;;10.10;99.90;;;;;;5048930;28;20820;-78
2023/05/24 01:04:26;;;;;;;23.17;7.38;;;10.10;99.90;;;;;;5053345;28;20225;-79
2023/05/24 01:07:15;;;;;;;35.90;10.07;;;10.10;99.90;;;;;;5045463;28;20646;-79
2023/05/24 01:09:51;;;;;;;23.08;7.65;;;10.20;99.90;;;;;;5051680;28;20695;-77
2023/05/24 01:12:27;;;;;;;20.15;6.55;;;10.20;99.90;;;;;;5051830;28;20216;-77
2023/05/24 01:15:05;;;;;;;28.67;7.30;;;10.20;99.90;;;;;;5062392;28;20206;-78
2023/05/24 01:17:41;;;;;;;24.80;7.10;;;10.20;99.90;;;;;;5065720;28;20199;-77
2023/05/24 01:20:12;;;;;;;15.07;7.07;;;10.20;99.90;;;;;;5061385;28;20203;-77
2023/05/24 01:23:24;;;;;;;23.10;9.07;;;10.20;99.90;;;;;;5062778;28;20580;-78
2023/05/24 01:26:06;;;;;;;22.42;7.45;;;10.20;99.90;;;;;;5008304;28;20651;-77
2023/05/24 01:28:35;;;;;;;34.63;8.20;;;10.20;99.90;;;;;;5049308;28;20294;-78
2023/05/24 01:31:03;;;;;;;21.65;6.30;;;10.20;99.90;;;;;;5051132;28;20200;-77
2023/05/24 01:33:30;;;;;;;28.58;9.30;;;10.20;99.90;;;;;;5058435;28;20271;-77
2023/05/24 01:35:57;;;;;;;36.45;8.48;;;10.20;99.90;;;;;;5068732;28;20196;-77
2023/05/24 01:38:24;;;;;;;22.35;7.35;;;10.20;99.90;;;;;;5070513;28;20296;-78
2023/05/24 01:41:01;;;;;;;21.63;8.10;;;10.10;99.90;;;;;;5063923;28;20234;-77
2023/05/24 01:43:33;;;;;;;27.67;8.27;;;10.20;99.90;;;;;;5049030;28;20306;-77
2023/05/24 01:46:10;;;;;;;24.58;8.32;;;10.20;99.90;;;;;;5047535;28;20204;-78
2023/05/24 01:48:43;;;;;;;22.73;10.32;;;10.20;99.90;;;;;;5054537;28;20665;-77
2023/05/24 01:51:14;;;;;;;18.73;6.25;;;10.20;99.90;;;;;;5058968;28;20191;-77
2023/05/24 01:53:45;;;;;;;28.60;7.82;;;10.20;99.90;;;;;;5053790;28;20257;-77
2023/05/24 01:56:13;;;;;;;21.55;6.88;;;10.20;99.90;;;;;;5057479;28;20204;-77
2023/05/24 01:58:42;;;;;;;23.80;7.97;;;10.20;99.90;;;;;;5051385;28;20196;-78
2023/05/24 02:01:10;;;;;;;25.25;7.03;;;10.20;99.90;;;;;;5053436;28;20282;-77
2023/05/24 02:03:37;;;;;;;24.02;7.63;;;10.20;99.90;;;;;;5055892;28;20223;-77
2023/05/24 02:06:05;;;;;;;16.98;6.60;;;10.20;99.90;;;;;;5050290;28;20635;-78
2023/05/24 02:08:32;;;;;;;27.08;7.78;;;10.20;99.90;;;;;;5048599;28;20699;-78
2023/05/24 02:10:59;;;;;;;16.02;8.27;;;10.20;99.90;;;;;;5055708;28;20618;-77
2023/05/24 02:13:26;;;;;;;23.90;8.15;;;10.20;99.90;;;;;;5043266;28;20294;-77
2023/05/24 02:15:53;;;;;;;27.15;6.85;;;10.20;99.90;;;;;;5041347;28;20292;-78
2023/05/24 02:18:21;;;;;;;23.13;6.40;;;10.20;99.90;;;;;;5044275;28;20246;-77
2023/05/24 02:20:48;;;;;;;20.45;8.88;;;10.20;99.90;;;;;;5046886;28;20219;-79
2023/05/24 02:23:15;;;;;;;22.55;6.25;;;10.20;99.90;;;;;;5052597;28;20303;-77
2023/05/24 02:25:42;;;;;;;26.88;7.68;;;10.20;99.90;;;;;;5052698;28;20204;-77
2023/05/24 02:28:09;;;;;;;30.60;8.55;;;10.30;99.90;;;;;;5044626;28;20244;-77
2023/05/24 02:30:37;;;;;;;28.17;6.90;;;10.30;99.90;;;;;;5047730;28;20299;-79
2023/05/24 02:33:04;;;;;;;18.55;9.43;;;10.30;99.90;;;;;;5055820;28;20211;-77
2023/05/24 02:35:33;;;;;;;24.95;8.10;;;10.30;99.90;;;;;;5055149;28;20203;-76
2023/05/24 02:38:00;;;;;;;26.50;6.90;;;10.30;99.90;;;;;;5064104;28;20638;-77
2023/05/24 02:40:28;;;;;;;27.35;8.05;;;10.30;99.90;;;;;;5054732;28;20200;-76
2023/05/24 02:42:55;;;;;;;31.65;9.77;;;10.30;99.90;;;;;;5048403;28;20558;-76
2023/05/24 02:45:22;;;;;;;20.48;7.18;;;10.30;99.90;;;;;;5045089;28;20595;-78
2023/05/24 02:47:49;;;;;;;19.10;6.68;;;10.30;99.90;;;;;;5045486;28;20311;-76
2023/05/24 02:50:16;;;;;;;22.80;7.75;;;10.30;99.90;;;;;;5050923;28;20195;-76
2023/05/24 02:52:44;;;;;;;29.10;7.85;;;10.30;99.90;;;;;;5051708;28;20220;-78
2023/05/24 02:55:11;;;;;;;23.33;9.15;;;10.40;99.90;;;;;;5054959;28;20297;-78
2023/05/24 02:57:38;;;;;;;20.63;7.10;;;10.40;99.90;;;;;;5060484;28;20205;-76
2023/05/24 03:00:08;;;;;;;25.55;6.80;;;10.40;99.90;;;;;;5051094;28;20206;-77
2023/05/24 03:02:37;;;;;;;16.27;5.85;;;10.40;99.90;;;;;;5052048;28;20289;-76
2023/05/24 03:05:04;;;;;;;26.13;6.78;;;10.40;99.90;;;;;;5060709;28;20200;-77
2023/05/24 03:07:31;;;;;;;25.48;6.55;;;10.40;99.90;;;;;;5054488;28;20643;-77
2023/05/24 03:09:59;;;;;;;24.00;7.03;;;10.40;99.90;;;;;;5062476;28;20279;-76
2023/05/24 03:12:27;;;;;;;26.73;6.00;;;10.40;99.90;;;;;;5049196;28;20245;-78
2023/05/24 03:14:53;;;;;;;22.48;6.82;;;10.40;99.90;;;;;;5046109;28;20285;-78
2023/05/24 03:17:20;;;;;;;23.92;7.78;;;10.40;99.90;;;;;;5052172;28;21648;-79
2023/05/24 03:19:47;;;;;;;26.33;6.75;;;10.40;99.90;;;;;;5050517;28;20239;-78
2023/05/24 03:22:14;;;;;;;22.15;7.70;;;10.40;99.90;;;;;;5049518;28;20306;-77
2023/05/24 03:24:41;;;;;;;20.58;7.38;;;10.40;99.90;;;;;;5055029;28;20200;-78
2023/05/24 03:27:09;;;;;;;21.67;5.82;;;10.40;99.90;;;;;;5048283;28;20288;-77
2023/05/24 03:29:36;;;;;;;24.92;7.53;;;10.50;99.90;;;;;;5046647;28;20738;-77
2023/05/24 03:32:03;;;;;;;26.85;8.70;;;10.50;99.90;;;;;;5049892;28;20306;-77
2023/05/24 03:34:31;;;;;;;22.98;6.85;;;10.60;99.90;;;;;;5045290;28;20206;-77
2023/05/24 03:36:57;;;;;;;25.30;5.57;;;10.50;99.90;;;;;;5048104;28;20274;-76
2023/05/24 03:39:24;;;;;;;25.35;7.60;;;10.60;99.90;;;;;;5054159;28;20636;-78
2023/05/24 03:41:51;;;;;;;27.55;8.60;;;10.60;99.90;;;;;;5052752;28;20246;-77
2023/05/24 03:44:19;;;;;;;21.00;6.80;;;10.60;99.90;;;;;;5047734;28;20651;-77
2023/05/24 03:46:46;;;;;;;25.58;7.32;;;10.70;99.90;;;;;;5043111;28;20284;-76
2023/05/24 03:49:13;;;;;;;19.05;7.13;;;10.80;99.90;;;;;;5054473;28;20208;-77
2023/05/24 03:51:40;;;;;;;28.50;7.05;;;10.80;99.90;;;;;;5051435;28;20221;-77
2023/05/24 03:54:07;;;;;;;29.13;9.25;;;10.90;99.90;;;;;;5050176;28;20281;-77
2023/05/24 03:56:34;;;;;;;17.02;6.95;;;10.90;99.90;;;;;;5048481;28;20288;-79
2023/05/24 03:59:02;;;;;;;25.23;5.90;;;10.90;99.90;;;;;;5047956;28;20283;-77
2023/05/24 04:01:31;;;;;;;25.30;8.88;;;10.90;99.90;;;;;;5056147;28;20200;-78
2023/05/24 04:03:58;;;;;;;21.15;9.02;;;10.80;99.90;;;;;;5059639;28;20198;-78
2023/05/24 04:06:28;;;;;;;33.67;6.88;;;10.80;99.90;;;;;;5047294;28;20201;-77
2023/05/24 04:08:56;;;;;;;21.42;6.68;;;10.80;99.90;;;;;;5048142;28;20214;-76
2023/05/24 04:11:26;;;;;;;18.30;6.50;;;10.80;99.90;;;;;;5053866;28;20207;-78
2023/05/24 04:13:54;;;;;;;32.20;6.88;;;10.80;99.90;;;;;;5044456;28;20201;-77
2023/05/24 04:16:24;;;;;;;15.77;7.07;;;10.80;99.90;;;;;;5053720;28;20284;-77
2023/05/24 04:18:53;;;;;;;29.30;7.00;;;10.90;99.90;;;;;;5057470;28;20228;-76
2023/05/24 04:21:22;;;;;;;18.08;6.43;;;10.90;99.90;;;;;;5058385;28;20236;-77
2023/05/24 04:23:49;;;;;;;40.85;6.68;;;10.90;99.90;;;;;;5047930;28;20193;-75
2023/05/24 04:26:16;;;;;;;32.90;7.70;;;11.00;99.90;;;;;;5063870;28;20216;-75
2023/05/24 04:28:44;;;;;;;24.50;6.88;;;11.00;99.90;;;;;;5050551;28;20208;-76
2023/05/24 04:31:11;;;;;;;22.35;6.68;;;11.00;99.90;;;;;;5053919;28;20202;-79
2023/05/24 04:33:38;;;;;;;19.70;6.95;;;11.00;99.90;;;;;;5050363;28;20675;-77
2023/05/24 04:36:10;;;;;;;22.73;6.32;;;11.00;99.90;;;;;;5054192;28;20221;-77
2023/05/24 04:38:37;;;;;;;27.67;8.52;;;11.00;99.90;;;;;;5054317;28;20226;-77
2023/05/24 04:41:05;;;;;;;28.55;6.35;;;11.00;99.90;;;;;;5042329;28;20196;-77
2023/05/24 04:43:33;;;;;;;24.40;8.40;;;11.00;99.90;;;;;;5052148;28;20228;-77
2023/05/24 04:46:00;;;;;;;19.70;7.63;;;11.00;99.90;;;;;;5053083;28;20200;-76
2023/05/24 04:48:28;;;;;;;27.10;8.30;;;11.00;99.90;;;;;;5065530;28;20227;-76
2023/05/24 04:50:56;;;;;;;17.80;6.00;;;11.10;99.90;;;;;;5053520;28;20289;-77
2023/05/24 04:53:25;;;;;;;19.73;7.57;;;11.10;99.90;;;;;;5054152;28;20220;-77
2023/05/24 04:55:52;;;;;;;16.35;5.78;;;11.10;99.90;;;;;;5052552;28;20196;-79
2023/05/24 04:58:19;;;;;;;20.08;6.35;;;11.10;99.90;;;;;;5053048;28;20212;-79
2023/05/24 05:00:46;;;;;;;23.35;6.20;;;11.10;99.90;;;;;;5055039;28;20209;-75
2023/05/24 05:03:14;;;;;;;18.10;7.60;;;11.20;99.90;;;;;;5048989;28;20326;-78
2023/05/24 05:05:41;;;;;;;22.77;6.28;;;11.20;99.90;;;;;;5048277;28;20277;-76
2023/05/24 05:08:08;;;;;;;23.65;5.60;;;11.10;99.90;;;;;;5048756;28;20696;-76
2023/05/24 05:10:37;;;;;;;20.90;7.65;;;11.20;99.90;;;;;;5045216;28;20276;-77
2023/05/24 05:13:11;;;;;;;20.60;7.95;;;11.20;99.90;;;;;;5055965;28;20221;-76
2023/05/24 05:15:38;;;;;;;26.35;8.80;;;11.20;99.90;;;;;;5054685;28;20206;-78
2023/05/24 05:18:12;;;;;;;35.65;6.43;;;11.30;99.90;;;;;;5068606;28;20219;-76
2023/05/24 05:20:39;;;;;;;21.55;6.65;;;11.30;99.90;;;;;;5045420;28;20228;-76
2023/05/24 05:23:06;;;;;;;11.30;6.00;;;11.40;99.90;;;;;;5050359;28;20226;-71
2023/05/24 05:25:32;;;;;;;18.25;6.15;;;11.40;99.90;;;;;;5052517;28;20727;-75
2023/05/24 05:28:01;;;;;;;29.50;7.30;;;11.40;99.90;;;;;;5063381;28;20603;-77
2023/05/24 05:30:28;;;;;;;23.10;6.50;;;11.50;99.90;;;;;;5061945;28;20676;-80
2023/05/24 05:32:58;;;;;;;20.67;7.22;;;11.60;99.90;;;;;;5056385;28;20620;-78
2023/05/24 05:35:25;;;;;;;23.38;7.97;;;11.50;99.90;;;;;;5048632;28;21006;-74
2023/05/24 05:37:52;;;;;;;18.98;6.85;;;11.50;99.90;;;;;;5046648;28;20715;-75
2023/05/24 05:40:19;;;;;;;28.48;9.10;;;11.50;99.90;;;;;;5045278;28;20231;-77
2023/05/24 05:42:46;;;;;;;18.30;7.80;;;11.50;99.90;;;;;;5038646;28;20308;-79
2023/05/24 05:45:14;;;;;;;25.17;9.70;;;11.40;99.90;;;;;;5054928;28;20218;-75
2023/05/24 05:47:42;;;;;;;20.27;7.90;;;11.40;99.90;;;;;;5053216;28;20242;-72
2023/05/24 05:50:10;;;;;;;19.25;7.03;;;11.40;99.90;;;;;;5062119;28;20211;-71
2023/05/24 05:52:37;;;;;;;15.45;6.40;;;11.40;99.90;;;;;;5047747;28;20340;-72
2023/05/24 05:55:04;;;;;;;26.15;7.88;;;11.50;99.90;;;;;;5050209;28;20675;-72
2023/05/24 05:57:31;;;;;;;28.58;7.57;;;11.50;99.90;;;;;;5053737;28;20539;-75
2023/05/24 05:59:58;;;;;;;27.02;10.00;;;11.50;99.90;;;;;;5055221;28;20197;-76
2023/05/24 06:02:26;;;;;;;25.20;8.18;;;11.60;99.90;;;;;;5055665;28;20223;-75
2023/05/24 06:04:53;;;;;;;18.45;6.80;;;11.70;99.90;;;;;;5058233;28;20189;-74
2023/05/24 06:07:21;;;;;;;24.85;6.13;;;11.70;99.90;;;;;;5061195;28;20197;-79
2023/05/24 06:09:48;;;;;;;17.05;6.40;;;11.70;99.90;;;;;;5050601;28;20224;-73
2023/05/24 06:12:15;;;;;;;33.17;7.95;;;11.80;99.90;;;;;;5058076;28;20713;-76
2023/05/24 06:14:43;;;;;;;21.65;7.10;;;11.90;99.90;;;;;;5053230;28;20216;-77
2023/05/24 06:17:10;;;;;;;26.08;7.53;;;11.90;99.90;;;;;;5058738;28;20296;-77
2023/05/24 06:19:38;;;;;;;27.17;7.80;;;11.90;99.90;;;;;;5049866;28;20202;-77
2023/05/24 06:22:05;;;;;;;24.92;8.57;;;11.90;99.90;;;;;;5059768;28;20254;-78
2023/05/24 06:24:33;;;;;;;25.98;7.55;;;12.00;99.90;;;;;;5062602;28;20345;-73
2023/05/24 06:27:00;;;;;;;20.55;6.78;;;12.00;99.90;;;;;;5055980;28;20205;-73
2023/05/24 06:29:27;;;;;;;23.33;7.35;;;12.00;99.90;;;;;;5053996;28;20221;-76
2023/05/24 06:31:54;;;;;;;22.58;8.32;;;12.00;99.90;;;;;;5060083;28;20219;-75
2023/05/24 06:34:21;;;;;;;23.15;8.43;;;12.00;99.90;;;;;;5068688;28;20201;-75
2023/05/24 06:36:51;;;;;;;15.77;6.97;;;12.00;99.90;;;;;;5044331;28;20596;-75
2023/05/24 06:39:19;;;;;;;25.38;7.75;;;12.10;99.90;;;;;;5050292;28;20285;-77
2023/05/24 06:41:46;;;;;;;29.30;7.43;;;12.00;99.90;;;;;;5046245;28;20226;-77
2023/05/24 06:44:15;;;;;;;19.88;6.82;;;12.00;99.90;;;;;;5052222;28;20212;-77
2023/05/24 06:46:42;;;;;;;21.35;6.90;;;12.00;99.90;;;;;;5055543;28;20710;-76
2023/05/24 06:49:08;;;;;;;41.10;9.45;;;12.00;99.90;;;;;;5051690;28;20372;-77
2023/05/24 06:51:36;;;;;;;22.90;7.18;;;12.10;99.90;;;;;;5052418;28;20206;-76
2023/05/24 06:54:05;;;;;;;31.08;8.63;;;12.10;99.90;;;;;;5060864;28;20654;-74
2023/05/24 06:56:32;;;;;;;19.00;6.65;;;12.20;99.90;;;;;;5055329;28;20657;-78
2023/05/24 06:59:00;;;;;;;27.77;7.75;;;12.20;99.90;;;;;;5061242;28;20191;-75
2023/05/24 07:01:28;;;;;;;18.70;7.40;;;12.20;99.90;;;;;;5059957;28;20207;-75
2023/05/24 07:03:55;;;;;;;24.05;7.55;;;12.20;99.90;;;;;;5059969;28;20203;-74
2023/05/24 07:06:21;;;;;;;24.30;8.13;;;12.20;99.90;;;;;;5053555;28;20299;-74
2023/05/24 07:08:48;;;;;;;25.88;7.72;;;12.30;99.90;;;;;;5053802;28;20285;-74
2023/05/24 07:11:17;;;;;;;28.27;8.65;;;12.40;99.90;;;;;;5047207;28;20238;-76
2023/05/24 07:13:45;;;;;;;26.02;9.05;;;12.40;99.90;;;;;;5057045;28;20742;-79
2023/05/24 07:16:11;;;;;;;25.17;7.45;;;12.50;99.90;;;;;;5056980;28;20278;-75
2023/05/24 07:18:40;;;;;;;23.92;8.85;;;12.50;99.90;;;;;;5051754;28;20302;-73
2023/05/24 07:21:07;;;;;;;28.70;8.30;;;12.60;99.90;;;;;;5056021;28;20195;-74
2023/05/24 07:23:41;;;;;;;24.52;6.78;;;12.50;99.90;;;;;;5054952;28;20253;-76
2023/05/24 07:26:08;;;;;;;25.35;6.65;;;12.50;99.90;;;;;;5055041;28;20209;-76
2023/05/24 07:28:39;;;;;;;27.52;7.72;;;12.50;99.90;;;;;;5053888;28;20206;-75
2023/05/24 07:31:06;;;;;;;20.55;7.03;;;12.50;99.90;;;;;;5047680;28;20780;-76
2023/05/24 07:33:35;;;;;;;24.55;7.95;;;12.50;99.90;;;;;;5059852;28;20233;-76
2023/05/24 07:36:03;;;;;;;38.97;10.40;;;12.40;99.90;;;;;;5054706;28;20201;-75
2023/05/24 07:38:30;;;;;;;24.40;6.78;;;12.40;99.90;;;;;;5055741;28;20710;-76
2023/05/24 07:41:00;;;;;;;30.13;7.70;;;12.40;99.90;;;;;;5059362;28;20198;-74
2023/05/24 07:43:27;;;;;;;16.38;7.38;;;12.40;99.90;;;;;;5044763;28;20250;-75
2023/05/24 07:45:55;;;;;;;41.10;7.90;;;12.50;99.90;;;;;;5048884;28;20203;-74
2023/05/24 07:48:23;;;;;;;32.75;7.85;;;12.50;99.90;;;;;;5047512;28;20210;-74
2023/05/24 07:50:54;;;;;;;25.65;10.07;;;12.60;99.90;;;;;;5041613;28;20218;-74
2023/05/24 07:53:21;;;;;;;23.98;8.90;;;12.70;99.90;;;;;;5046234;28;20332;-76
2023/05/24 07:55:49;;;;;;;30.15;11.65;;;12.90;99.90;;;;;;5041326;28;20225;-74
2023/05/24 07:58:16;;;;;;;26.60;7.65;;;12.90;99.90;;;;;;5048092;28;20630;-74
2023/05/24 08:00:44;;;;;;;16.70;6.68;;;12.90;99.90;;;;;;5050415;28;20291;-73
2023/05/24 08:03:14;;;;;;;30.38;7.75;;;13.00;99.90;;;;;;5052823;28;20307;-75
2023/05/24 08:05:41;;;;;;;42.25;9.10;;;13.00;99.90;;;;;;5055721;28;20602;-77
2023/05/24 08:08:09;;;;;;;27.30;8.98;;;13.00;99.90;;;;;;5051190;28;20203;-76
2023/05/24 08:10:36;;;;;;;29.05;7.28;;;13.00;99.90;;;;;;5054530;28;20218;-74
2023/05/24 08:13:04;;;;;;;27.65;8.20;;;13.10;99.90;;;;;;5053899;28;20288;-75
2023/05/24 08:15:31;;;;;;;39.88;8.52;;;13.10;99.90;;;;;;5053254;28;20196;-77
2023/05/24 08:17:58;;;;;;;21.23;7.45;;;13.20;99.90;;;;;;5069139;28;20195;-74
2023/05/24 08:20:28;;;;;;;29.02;8.90;;;13.30;99.90;;;;;;5062408;28;20253;-77
2023/05/24 08:22:55;;;;;;;36.00;11.13;;;13.30;99.90;;;;;;5055016;28;20932;-75
2023/05/24 08:25:22;;;;;;;29.67;8.65;;;13.30;99.90;;;;;;5057031;28;20354;-75
2023/05/24 08:27:50;;;;;;;32.55;8.32;;;13.30;99.90;;;;;;5046498;28;20221;-77
2023/05/24 08:30:18;;;;;;;23.50;8.38;;;13.30;99.90;;;;;;5053601;28;20253;-77
2023/05/24 08:32:45;;;;;;;22.55;7.68;;;13.40;99.90;;;;;;5055079;28;20218;-76
2023/05/24 08:35:12;;;;;;;23.88;8.85;;;13.40;99.90;;;;;;5048685;28;20297;-76
2023/05/24 08:37:40;;;;;;;32.38;9.05;;;13.30;99.90;;;;;;5046298;28;20233;-74
2023/05/24 08:40:09;;;;;;;35.40;8.65;;;13.30;99.90;;;;;;5056553;28;20271;-74
2023/05/24 08:42:38;;;;;;;26.10;9.00;;;13.40;99.90;;;;;;5043205;28;20231;-76
2023/05/24 08:45:11;;;;;;;23.48;7.90;;;13.40;99.90;;;;;;5062743;28;20234;-75
2023/05/24 08:47:39;;;;;;;20.17;8.15;;;13.30;99.90;;;;;;5037115;28;20198;-75
2023/05/24 08:50:07;;;;;;;19.85;9.55;;;13.20;99.90;;;;;;5044461;28;20298;-76
2023/05/24 08:52:34;;;;;;;22.55;6.70;;;13.20;99.90;;;;;;5043841;28;20216;-75
2023/05/24 08:55:04;;;;;;;39.03;9.77;;;13.20;99.90;;;;;;5039633;28;20222;-76
2023/05/24 08:57:33;;;;;;;29.45;8.07;;;13.20;99.90;;;;;;5041211;28;20237;-75
2023/05/24 09:00:00;;;;;;;26.50;7.90;;;13.20;99.90;;;;;;5049409;28;20294;-77
2023/05/24 09:02:28;;;;;;;23.95;8.35;;;13.20;99.90;;;;;;5052059;28;20236;-76
2023/05/24 09:04:56;;;;;;;26.55;8.50;;;13.20;99.90;;;;;;5051806;28;20195;-78
2023/05/24 09:07:23;;;;;;;18.92;8.27;;;13.30;99.90;;;;;;5050792;28;20230;-75
2023/05/24 09:09:57;;;;;;;29.00;7.72;;;13.30;99.90;;;;;;5050112;28;20219;-77
2023/05/24 09:12:27;;;;;;;26.65;8.88;;;13.30;99.90;;;;;;5046532;28;20610;-73
2023/05/24 09:14:54;;;;;;;27.65;8.23;;;13.40;99.90;;;;;;5053409;28;20560;-74
2023/05/24 09:17:22;;;;;;;21.10;7.55;;;13.50;99.90;;;;;;5054260;28;20195;-74
2023/05/24 09:19:51;;;;;;;40.80;8.63;;;13.70;99.90;;;;;;5055354;28;20254;-74
2023/05/24 09:22:24;;;;;;;23.90;6.93;;;13.80;99.90;;;;;;5049795;28;20219;-76
2023/05/24 09:24:52;;;;;;;22.90;6.47;;;13.90;99.90;;;;;;5049638;28;20208;-75
2023/05/24 09:27:21;;;;;;;24.45;8.95;;;14.10;99.90;;;;;;5054443;28;20290;-75
2023/05/24 09:29:52;;;;;;;19.52;8.10;;;14.20;99.90;;;;;;5048729;28;20200;-76
2023/05/24 09:32:22;;;;;;;30.48;9.00;;;14.40;99.90;;;;;;5052948;28;20634;-75
2023/05/24 09:34:49;;;;;;;25.35;8.55;;;14.50;99.90;;;;;;5047218;28;20278;-78
2023/05/24 09:37:17;;;;;;;28.17;7.88;;;14.40;99.90;;;;;;5046892;28;20327;-73
2023/05/24 09:39:46;;;;;;;21.27;9.77;;;14.40;99.90;;;;;;5053433;28;20196;-75
2023/05/24 09:42:16;;;;;;;29.65;8.15;;;14.40;99.90;;;;;;5061338;28;20210;-76
2023/05/24 09:44:43;;;;;;;23.98;8.38;;;14.30;99.90;;;;;;5051107;28;20212;-75
2023/05/24 09:47:15;;;;;;;33.33;8.75;;;14.20;99.90;;;;;;5056253;28;20191;-74
2023/05/24 09:49:43;;;;;;;24.23;10.05;;;14.10;99.90;;;;;;5054318;28;20226;-77
2023/05/24 09:52:14;;;;;;;18.45;7.15;;;14.10;99.90;;;;;;5053834;28;20250;-76
2023/05/24 09:54:42;;;;;;;23.63;8.00;;;14.10;99.90;;;;;;5061727;28;20648;-77
2023/05/24 09:57:10;;;;;;;26.00;7.60;;;14.10;99.90;;;;;;5056062;28;20193;-75
2023/05/24 09:59:41;;;;;;;32.58;10.55;;;14.20;99.90;;;;;;5058944;28;20207;-75
2023/05/24 10:02:12;;;;;;;22.13;6.60;;;14.30;99.90;;;;;;5058113;28;20220;-76
2023/05/24 10:04:41;;;;;;;39.70;11.38;;;14.50;99.90;;;;;;5080528;28;20199;-75
2023/05/24 10:07:09;;;;;;;22.92;7.05;;;14.80;99.90;;;;;;5057882;28;20202;-76
2023/05/24 10:09:36;;;;;;;26.88;7.90;;;15.30;99.90;;;;;;5057893;28;20614;-76
2023/05/24 10:12:04;;;;;;;20.45;8.27;;;16.00;99.90;;;;;;5050397;28;20675;-80
2023/05/24 10:14:34;;;;;;;19.97;7.40;;;16.80;99.90;;;;;;5055567;28;20722;-76
2023/05/24 10:17:02;;;;;;;29.70;7.10;;;17.40;99.90;;;;;;5049831;28;20460;-77
2023/05/24 10:19:29;;;;;;;17.03;6.77;;;17.70;99.90;;;;;;5065130;28;20454;-76
2023/05/24 10:21:59;;;;;;;22.27;6.83;;;17.70;99.90;;;;;;5063291;28;20469;-74
2023/05/24 10:24:32;;;;;;;38.37;9.07;;;17.80;99.90;;;;;;5055551;28;20445;-76
2023/05/24 10:27:01;;;;;;;22.83;6.40;;;17.90;99.90;;;;;;5052830;28;20440;-73
2023/05/24 10:29:36;;;;;;;22.00;7.67;;;17.90;99.90;;;;;;5052903;28;20445;-75
2023/05/24 10:32:05;;;;;;;24.77;6.80;;;17.70;99.90;;;;;;5054133;28;20530;-78
2023/05/24 10:34:32;;;;;;;27.57;8.80;;;17.50;99.90;;;;;;5054775;28;20836;-75
2023/05/24 10:37:01;;;;;;;17.90;7.50;;;17.20;99.90;;;;;;5059665;28;20446;-76
2023/05/24 10:39:29;;;;;;;23.90;7.43;;;16.90;99.90;;;;;;5053820;28;20458;-76
2023/05/24 10:41:56;;;;;;;27.90;9.37;;;16.70;99.90;;;;;;5064775;28;20461;-74
2023/05/24 10:44:29;;;;;;;25.23;7.80;;;16.50;99.90;;;;;;5053736;28;20441;-76
2023/05/24 10:47:12;;;;;;;19.23;7.20;;;16.30;99.90;;;;;;5049339;28;20558;-75
2023/05/24 10:49:48;;;;;;;17.88;7.80;;;16.20;99.90;;;;;;5054217;28;20260;-77
2023/05/24 10:52:16;;;;;;;22.17;7.47;;;16.10;99.90;;;;;;5053353;28;20646;-75
2023/05/24 10:55:03;;;;;;;30.33;7.25;;;16.10;99.90;;;;;;5059713;28;20280;-76
2023/05/24 10:57:31;;;;;;;17.33;8.27;;;16.00;99.90;;;;;;5052078;28;20227;-77
2023/05/24 11:00:29;;;;;;;18.27;7.90;;;16.00;99.90;;;;;;5061742;28;20428;-76
2023/05/24 11:03:01;;;;;;;17.95;7.43;;;16.20;99.90;;;;;;5053402;28;20315;-76
2023/05/24 11:05:34;;;;;;;14.03;7.20;;;16.30;99.90;;;;;;5054083;28;20199;-76
2023/05/24 11:08:02;;;;;;;18.50;6.83;;;16.50;99.90;;;;;;5046398;28;20434;-77
2023/05/24 11:10:32;;;;;;;17.17;6.87;;;16.50;99.90;;;;;;5050208;28;20596;-77
2023/05/24 11:13:01;;;;;;;24.73;8.00;;;16.40;99.90;;;;;;5057702;28;20552;-76
2023/05/24 11:15:30;;;;;;;29.05;7.40;;;16.10;99.90;;;;;;5060184;28;20447;-76
2023/05/24 11:18:16;;;;;;;17.42;6.97;;;15.90;99.90;;;;;;5054439;28;20221;-76
2023/05/24 11:20:44;;;;;;;20.13;8.05;;;15.70;99.90;;;;;;5057533;28;20193;-77
2023/05/24 11:23:11;;;;;;;17.80;7.23;;;15.60;99.90;;;;;;5057583;28;20224;-75
2023/05/24 11:25:38;;;;;;;19.48;6.35;;;15.60;99.90;;;;;;5052336;28;20740;-75
2023/05/24 11:28:08;;;;;;;17.27;8.15;;;15.60;99.90;;;;;;5055972;28;20287;-76
2023/05/24 11:30:40;;;;;;;17.58;5.97;;;15.60;99.90;;;;;;5051926;28;20686;-75
2023/05/24 11:33:14;;;;;;;17.30;6.00;;;15.60;99.90;;;;;;5056042;28;20224;-76
2023/05/24 11:35:42;;;;;;;14.73;6.60;;;15.70;99.90;;;;;;5050926;28;20219;-75
2023/05/24 11:38:12;;;;;;;15.43;6.55;;;15.80;99.90;;;;;;5046421;28;20202;-77
2023/05/24 11:40:43;;;;;;;19.15;7.88;;;15.60;99.90;;;;;;5051504;28;20223;-78
2023/05/24 11:43:11;;;;;;;13.63;5.70;;;15.60;99.90;;;;;;5049796;28;20278;-75
2023/05/24 11:45:41;;;;;;;19.02;7.20;;;15.60;99.90;;;;;;5052578;28;20724;-73
2023/05/24 11:48:09;;;;;;;24.27;7.90;;;15.70;99.90;;;;;;5065532;28;20197;-75
2023/05/24 11:50:39;;;;;;;11.95;6.10;;;15.80;99.90;;;;;;5053387;28;20214;-77
2023/05/24 11:53:09;;;;;;;18.42;6.22;;;16.00;99.90;;;;;;5047678;28;20248;-76
2023/05/24 11:55:36;;;;;;;21.70;6.50;;;16.20;99.90;;;;;;5053301;28;20198;-74
2023/05/24 11:58:07;;;;;;;16.85;6.18;;;16.40;99.90;;;;;;5063255;28;20462;-74
2023/05/24 12:00:35;;;;;;;19.90;7.90;;;16.40;99.90;;;;;;5063339;28;20323;-75
2023/05/24 12:03:06;;;;;;;11.48;6.32;;;16.40;99.90;;;;;;5042625;28;20468;-75
2023/05/24 12:05:33;;;;;;;21.20;5.68;;;16.40;99.90;;;;;;5049214;28;20206;-76
2023/05/24 12:08:04;;;;;;;15.88;6.35;;;16.50;99.90;;;;;;5044718;28;20811;-75
2023/05/24 12:10:33;;;;;;;19.60;6.10;;;16.50;99.90;;;;;;5049172;28;20276;-76
2023/05/24 12:13:00;;;;;;;24.42;6.72;;;16.40;99.90;;;;;;5047788;28;20972;-76
2023/05/24 12:15:27;;;;;;;18.43;6.27;;;16.40;99.90;;;;;;5050545;28;20221;-75
2023/05/24 12:17:54;;;;;;;30.95;7.55;;;16.30;99.90;;;;;;5048692;28;20516;-75
2023/05/24 12:20:22;;;;;;;22.20;6.30;;;16.50;99.90;;;;;;5055640;28;20242;-74
2023/05/24 12:22:50;;;;;;;19.07;6.57;;;16.70;99.90;;;;;;5060539;28;20686;-77
2023/05/24 12:25:20;;;;;;;18.00;7.87;;;16.70;99.90;;;;;;5058224;28;20438;-76
2023/05/24 12:27:47;;;;;;;18.40;7.30;;;16.80;99.90;;;;;;5056175;28;20437;-74
2023/05/24 12:30:19;;;;;;;24.07;8.40;;;16.90;99.90;;;;;;5052254;28;20438;-75
2023/05/24 12:32:47;;;;;;;20.40;8.90;;;17.00;99.90;;;;;;5051610;28;20478;-76
2023/05/24 12:35:15;;;;;;;17.60;6.53;;;17.10;99.90;;;;;;5058124;28;20528;-76
2023/05/24 12:37:43;;;;;;;16.93;6.67;;;17.40;99.90;;;;;;5054232;28;20445;-76
2023/05/24 12:40:19;;;;;;;28.43;8.20;;;17.50;99.90;;;;;;5045205;28;20908;-75
2023/05/24 12:42:48;;;;;;;16.13;7.20;;;17.60;99.90;;;;;;5053135;28;20485;-76